createdAt,value
2022-12-04T00:00:17.738Z,14.32
2022-12-04T00:01:07.582Z,14.63
2022-12-04T00:01:49.391Z,13.05
2022-12-04T00:02:31.334Z,12.70
2022-12-04T00:03:13.130Z,14.18
2022-12-04T00:04:00.820Z,15.02
2022-12-04T00:04:42.557Z,14.57
2022-12-04T00:05:24.397Z,14.13
2022-12-04T00:06:15.089Z,14.48
2022-12-04T00:06:58.905Z,13.82
2022-12-04T00:07:41.221Z,15.40
2022-12-04T00:08:22.988Z,14.07
2022-12-04T00:09:05.635Z,12.73
2022-12-04T00:09:47.411Z,13.38
2022-12-04T00:10:29.334Z,14.00
2022-12-04T00:11:13.247Z,15.13
2022-12-04T00:11:54.950Z,13.95
2022-12-04T00:12:36.817Z,13.80
2022-12-04T00:13:19.335Z,14.15
2022-12-04T00:14:06.906Z,14.38
2022-12-04T00:15:23.873Z,13.60
2022-12-04T00:15:52.656Z,14.52
2022-12-04T00:16:35.402Z,14.38
2022-12-04T00:17:17.228Z,14.48
2022-12-04T00:17:59.015Z,14.20
2022-12-04T00:18:41.064Z,14.25
2022-12-04T00:19:22.890Z,14.45
2022-12-04T00:20:05.276Z,13.93
2022-12-04T00:20:46.969Z,13.45
2022-12-04T00:21:28.761Z,13.63
2022-12-04T00:22:10.798Z,13.30
2022-12-04T00:22:53.041Z,14.63
2022-12-04T00:23:36.190Z,14.25
2022-12-04T00:24:17.962Z,13.95
2022-12-04T00:24:59.724Z,14.75
2022-12-04T00:25:41.684Z,14.67
2022-12-04T00:26:27.166Z,14.50
2022-12-04T00:27:09.128Z,13.23
2022-12-04T00:27:50.896Z,14.65
2022-12-04T00:28:33.709Z,13.75
2022-12-04T00:29:15.599Z,15.27
2022-12-04T00:29:57.429Z,14.05
2022-12-04T00:30:43.786Z,15.20
2022-12-04T00:31:27.751Z,14.23
2022-12-04T00:32:09.684Z,14.45
2022-12-04T00:32:51.585Z,14.80
2022-12-04T00:33:33.945Z,15.00
2022-12-04T00:34:15.655Z,16.13
2022-12-04T00:34:57.568Z,15.88
2022-12-04T00:35:39.520Z,15.30
2022-12-04T00:36:23.910Z,15.75
2022-12-04T00:37:05.668Z,14.85
2022-12-04T00:37:47.417Z,14.55
2022-12-04T00:38:29.613Z,14.32
2022-12-04T00:39:11.407Z,13.65
2022-12-04T00:39:53.595Z,14.15
2022-12-04T00:40:35.587Z,15.13
2022-12-04T00:41:20.199Z,14.10
2022-12-04T00:42:01.843Z,13.20
2022-12-04T00:42:43.636Z,13.25
2022-12-04T00:43:25.497Z,14.23
2022-12-04T00:44:07.214Z,14.50
2022-12-04T00:44:49.133Z,14.15
2022-12-04T00:45:30.920Z,14.85
2022-12-04T00:46:13.314Z,15.45
2022-12-04T00:46:55.100Z,15.02
2022-12-04T00:47:36.775Z,14.40
2022-12-04T00:48:18.707Z,14.80
2022-12-04T00:49:02.607Z,15.23
2022-12-04T00:49:44.447Z,14.07
2022-12-04T00:50:26.218Z,14.50
2022-12-04T00:51:20.892Z,14.13
2022-12-04T00:52:02.618Z,13.98
2022-12-04T00:52:44.341Z,14.30
2022-12-04T00:53:26.022Z,13.98
2022-12-04T00:54:07.760Z,14.82
2022-12-04T00:54:49.542Z,14.55
2022-12-04T00:55:31.292Z,14.30
2022-12-04T00:56:19.486Z,14.20
2022-12-04T00:57:01.244Z,14.40
2022-12-04T00:57:42.939Z,13.48
2022-12-04T00:58:24.797Z,12.80
2022-12-04T00:59:06.481Z,13.95
2022-12-04T00:59:48.297Z,13.27
2022-12-04T01:00:30.230Z,13.25
2022-12-04T01:01:18.117Z,13.50
2022-12-04T01:02:00.004Z,14.35
2022-12-04T01:02:41.818Z,13.50
2022-12-04T01:03:23.753Z,14.15
2022-12-04T01:04:05.725Z,14.13
2022-12-04T01:04:47.658Z,14.60
2022-12-04T01:05:29.505Z,14.40
2022-12-04T01:06:37.131Z,13.65
2022-12-04T01:07:18.921Z,13.55
2022-12-04T01:08:00.656Z,14.55
2022-12-04T01:08:42.439Z,14.20
2022-12-04T01:09:24.159Z,13.63
2022-12-04T01:10:08.612Z,15.15
2022-12-04T01:10:50.497Z,14.30
2022-12-04T01:11:33.285Z,13.30
2022-12-04T01:12:20.373Z,14.20
2022-12-04T01:13:02.605Z,13.60
2022-12-04T01:13:44.721Z,13.95
2022-12-04T01:14:26.433Z,14.50
2022-12-04T01:15:08.708Z,14.20
2022-12-04T01:15:50.570Z,15.00
2022-12-04T01:16:37.771Z,14.45
2022-12-04T01:17:19.512Z,14.10
2022-12-04T01:18:01.246Z,13.18
2022-12-04T01:18:42.977Z,12.90
2022-12-04T01:19:24.788Z,14.30
2022-12-04T01:20:06.886Z,12.50
2022-12-04T01:20:50.396Z,14.40
2022-12-04T01:21:32.345Z,14.63
2022-12-04T01:22:14.110Z,14.60
2022-12-04T01:22:55.903Z,14.45
2022-12-04T01:23:37.656Z,13.05
2022-12-04T01:24:19.411Z,14.57
2022-12-04T01:25:01.210Z,13.15
2022-12-04T01:25:57.143Z,13.38
2022-12-04T01:26:38.975Z,13.60
2022-12-04T01:27:20.680Z,13.95
2022-12-04T01:28:02.398Z,12.90
2022-12-04T01:28:44.248Z,13.55
2022-12-04T01:29:26.006Z,12.82
2022-12-04T01:30:08.199Z,13.02
2022-12-04T01:31:05.300Z,13.63
2022-12-04T01:31:47.116Z,13.18
2022-12-04T01:32:28.972Z,14.13
2022-12-04T01:33:10.776Z,12.45
2022-12-04T01:33:53.168Z,13.32
2022-12-04T01:34:35.965Z,13.77
2022-12-04T01:35:17.836Z,14.82
2022-12-04T01:36:01.516Z,13.55
2022-12-04T01:36:43.165Z,13.70
2022-12-04T01:37:24.876Z,13.25
2022-12-04T01:38:06.591Z,13.52
2022-12-04T01:38:48.431Z,13.63
2022-12-04T01:39:30.332Z,12.95
2022-12-04T01:40:17.151Z,12.63
2022-12-04T01:40:58.927Z,13.60
2022-12-04T01:41:40.572Z,13.07
2022-12-04T01:42:22.275Z,14.02
2022-12-04T01:43:03.905Z,14.48
2022-12-04T01:43:45.756Z,13.43
2022-12-04T01:44:29.182Z,12.98
2022-12-04T01:45:29.332Z,13.38
2022-12-04T01:46:11.880Z,12.27
2022-12-04T01:46:55.873Z,12.98
2022-12-04T01:47:37.597Z,13.18
2022-12-04T01:48:46.069Z,13.30
2022-12-04T01:49:43.986Z,13.77
2022-12-04T01:50:25.724Z,12.52
2022-12-04T01:51:27.041Z,14.98
2022-12-04T01:52:14.412Z,14.25
2022-12-04T01:52:56.152Z,15.15
2022-12-04T01:53:42.148Z,14.02
2022-12-04T01:54:32.467Z,12.40
2022-12-04T01:55:14.156Z,13.55
2022-12-04T01:55:56.514Z,13.82
2022-12-04T01:56:45.408Z,12.98
2022-12-04T01:57:31.329Z,12.48
2022-12-04T01:58:15.618Z,13.65
2022-12-04T01:59:01.649Z,13.10
2022-12-04T01:59:50.512Z,12.63
2022-12-04T02:00:32.314Z,12.65
2022-12-04T02:01:14.167Z,13.35
2022-12-04T02:02:12.018Z,13.55
2022-12-04T02:02:54.187Z,12.82
2022-12-04T02:03:37.418Z,13.48
2022-12-04T02:04:19.939Z,13.85
2022-12-04T02:05:05.011Z,14.02
2022-12-04T02:05:46.652Z,13.65
2022-12-04T02:06:28.373Z,13.40
2022-12-04T02:07:10.508Z,14.73
2022-12-04T02:07:57.589Z,14.02
2022-12-04T02:08:39.646Z,14.10
2022-12-04T02:09:26.746Z,13.55
2022-12-04T02:10:10.007Z,12.68
2022-12-04T02:10:54.491Z,13.63
2022-12-04T02:11:44.139Z,13.80
2022-12-04T02:12:53.308Z,13.07
2022-12-04T02:13:59.451Z,12.43
2022-12-04T02:15:25.734Z,13.38
2022-12-04T02:16:14.991Z,13.20
2022-12-04T02:17:05.001Z,13.55
2022-12-04T02:18:20.506Z,13.98
2022-12-04T02:19:05.033Z,12.90
2022-12-04T02:19:57.109Z,13.50
2022-12-04T02:20:41.865Z,12.85
2022-12-04T02:21:43.855Z,13.52
2022-12-04T02:22:47.983Z,13.07
2022-12-04T02:23:48.205Z,14.10
2022-12-04T02:24:55.187Z,13.60
2022-12-04T02:26:10.619Z,13.05
2022-12-04T02:27:25.473Z,12.55
2022-12-04T02:28:09.628Z,13.05
2022-12-04T02:29:15.658Z,12.38
2022-12-04T02:30:03.753Z,14.45
2022-12-04T02:30:47.385Z,13.52
2022-12-04T02:31:42.876Z,14.48
2022-12-04T02:32:24.436Z,13.45
2022-12-04T02:33:09.882Z,12.65
2022-12-04T02:34:05.604Z,13.18
2022-12-04T02:34:56.159Z,12.20
2022-12-04T02:35:44.291Z,13.70
2022-12-04T02:36:31.533Z,12.95
2022-12-04T02:37:21.677Z,13.02
2022-12-04T02:38:17.812Z,12.57
2022-12-04T02:39:09.871Z,12.30
2022-12-04T02:39:59.062Z,11.93
2022-12-04T02:40:56.956Z,13.60
2022-12-04T02:42:00.038Z,14.02
2022-12-04T02:42:57.974Z,16.92
2022-12-04T02:43:45.414Z,14.75
2022-12-04T02:44:35.174Z,13.52
2022-12-04T02:45:31.615Z,14.30
2022-12-04T02:46:16.107Z,13.95
2022-12-04T02:47:01.307Z,14.00
2022-12-04T02:47:45.603Z,14.23
2022-12-04T02:48:32.339Z,14.07
2022-12-04T02:49:28.145Z,13.85
2022-12-04T02:50:13.362Z,14.80
2022-12-04T02:50:58.294Z,14.23
2022-12-04T02:51:43.874Z,13.73
2022-12-04T02:52:33.696Z,13.32
2022-12-04T02:53:20.692Z,13.98
2022-12-04T02:54:09.488Z,15.27
2022-12-04T02:54:57.520Z,13.25
2022-12-04T02:55:43.935Z,12.85
2022-12-04T02:56:30.383Z,12.20
2022-12-04T02:57:18.256Z,13.70
2022-12-04T02:58:05.995Z,13.43
2022-12-04T02:58:53.311Z,13.60
2022-12-04T02:59:39.321Z,12.90
2022-12-04T03:00:22.203Z,13.27
2022-12-04T03:01:19.572Z,13.05
2022-12-04T03:02:09.537Z,12.50
2022-12-04T03:03:08.782Z,12.60
2022-12-04T03:04:09.279Z,13.10
2022-12-04T03:04:53.425Z,12.98
2022-12-04T03:05:53.567Z,12.60
2022-12-04T03:06:39.280Z,12.93
2022-12-04T03:07:29.425Z,12.85
2022-12-04T03:08:17.083Z,12.88
2022-12-04T03:09:06.292Z,12.57
2022-12-04T03:09:53.608Z,11.55
2022-12-04T03:10:41.517Z,13.45
2022-12-04T03:11:26.428Z,13.07
2022-12-04T03:12:18.153Z,13.10
2022-12-04T03:13:06.507Z,12.05
2022-12-04T03:13:55.486Z,11.90
2022-12-04T03:14:43.199Z,11.30
2022-12-04T03:15:37.399Z,12.13
2022-12-04T03:16:24.296Z,12.77
2022-12-04T03:17:11.980Z,13.18
2022-12-04T03:18:09.272Z,12.45
2022-12-04T03:19:09.124Z,11.98
2022-12-04T03:19:56.886Z,11.50
2022-12-04T03:20:39.720Z,12.55
2022-12-04T03:21:26.675Z,12.15
2022-12-04T03:22:13.449Z,12.10
2022-12-04T03:23:03.285Z,12.52
2022-12-04T03:23:50.828Z,13.63
2022-12-04T03:24:48.078Z,12.55
2022-12-04T03:25:36.878Z,12.63
2022-12-04T03:26:37.029Z,12.45
2022-12-04T03:27:45.965Z,12.35
2022-12-04T03:28:38.743Z,11.20
2022-12-04T03:29:29.500Z,12.07
2022-12-04T03:30:14.247Z,12.07
2022-12-04T03:31:03.629Z,11.10
2022-12-04T03:31:57.719Z,12.77
2022-12-04T03:32:55.193Z,13.43
2022-12-04T03:33:48.412Z,11.93
2022-12-04T03:34:42.453Z,11.70
2022-12-04T03:35:29.936Z,12.23
2022-12-04T03:36:21.962Z,11.45
2022-12-04T03:37:10.669Z,12.75
2022-12-04T03:38:04.848Z,12.40
2022-12-04T03:39:11.696Z,12.75
2022-12-04T03:40:06.417Z,14.25
2022-12-04T03:41:04.235Z,12.57
2022-12-04T03:42:01.667Z,11.68
2022-12-04T03:42:54.419Z,12.75
2022-12-04T03:43:53.835Z,12.90
2022-12-04T03:44:35.420Z,11.75
2022-12-04T03:45:23.545Z,12.40
2022-12-04T03:46:11.365Z,11.82
2022-12-04T03:47:00.999Z,11.60
2022-12-04T03:47:51.600Z,12.43
2022-12-04T03:48:42.505Z,11.73
2022-12-04T03:49:45.785Z,11.73
2022-12-04T03:50:37.183Z,11.18
2022-12-04T03:51:24.786Z,11.57
2022-12-04T03:52:24.562Z,11.35
2022-12-04T03:53:25.431Z,11.38
2022-12-04T03:54:21.861Z,11.13
2022-12-04T03:55:32.243Z,10.70
2022-12-04T03:56:19.064Z,11.15
2022-12-04T03:57:06.460Z,11.88
2022-12-04T03:57:51.014Z,11.55
2022-12-04T03:58:35.813Z,11.13
2022-12-04T03:59:26.936Z,11.55
2022-12-04T04:00:14.219Z,11.88
2022-12-04T04:00:58.186Z,11.02
2022-12-04T04:01:44.837Z,11.45
2022-12-04T04:02:33.054Z,11.02
2022-12-04T04:03:36.919Z,11.68
2022-12-04T04:04:24.748Z,12.02
2022-12-04T04:05:09.968Z,12.40
2022-12-04T04:05:55.945Z,12.15
2022-12-04T04:06:42.227Z,10.32
2022-12-04T04:07:35.737Z,11.40
2022-12-04T04:08:26.694Z,11.88
2022-12-04T04:09:19.423Z,11.75
2022-12-04T04:10:11.292Z,11.32
2022-12-04T04:11:19.490Z,11.52
2022-12-04T04:12:11.783Z,10.75
2022-12-04T04:13:20.700Z,11.68
2022-12-04T04:14:37.391Z,11.02
2022-12-04T04:15:38.355Z,11.60
2022-12-04T04:16:43.491Z,10.55
2022-12-04T04:17:47.755Z,10.85
2022-12-04T04:18:50.504Z,10.23
2022-12-04T04:19:53.881Z,11.82
2022-12-04T04:21:06.263Z,11.48
2022-12-04T04:22:09.681Z,10.02
2022-12-04T04:23:13.398Z,11.88
2022-12-04T04:24:13.838Z,12.10
2022-12-04T04:25:02.504Z,11.30
2022-12-04T04:25:45.504Z,12.70
2022-12-04T04:26:32.679Z,11.57
2022-12-04T04:27:14.543Z,11.77
2022-12-04T04:27:58.692Z,11.33
2022-12-04T04:28:42.101Z,11.00
2022-12-04T04:29:23.853Z,11.27
2022-12-04T04:30:07.623Z,10.93
2022-12-04T04:30:49.307Z,11.57
2022-12-04T04:31:40.955Z,10.80
2022-12-04T04:32:31.047Z,10.15
2022-12-04T04:33:16.827Z,10.13
2022-12-04T04:34:10.272Z,11.23
2022-12-04T04:35:05.134Z,10.07
2022-12-04T04:35:57.726Z,10.27
2022-12-04T04:37:04.107Z,10.75
2022-12-04T04:37:57.380Z,10.07
2022-12-04T04:39:08.134Z,10.98
2022-12-04T04:39:49.769Z,10.63
2022-12-04T04:40:39.642Z,10.48
2022-12-04T04:41:32.984Z,10.57
2022-12-04T04:42:35.501Z,10.20
2022-12-04T04:43:32.071Z,11.02
2022-12-04T04:44:34.985Z,10.70
2022-12-04T04:45:32.091Z,10.35
2022-12-04T04:46:31.969Z,11.88
2022-12-04T04:47:23.763Z,11.48
2022-12-04T04:48:14.769Z,10.20
2022-12-04T04:49:00.514Z,11.02
2022-12-04T04:49:43.301Z,11.18
2022-12-04T04:50:25.645Z,10.52
2022-12-04T04:51:07.897Z,11.77
2022-12-04T04:51:49.745Z,11.38
2022-12-04T04:52:32.896Z,10.70
2022-12-04T04:53:22.303Z,10.23
2022-12-04T04:54:08.493Z,10.40
2022-12-04T04:54:50.130Z,10.57
2022-12-04T04:55:34.548Z,10.82
2022-12-04T04:56:16.517Z,10.55
2022-12-04T04:56:58.255Z,11.10
2022-12-04T04:57:39.968Z,10.85
2022-12-04T04:58:21.748Z,10.88
2022-12-04T04:59:03.367Z,10.00
2022-12-04T04:59:44.995Z,11.60
2022-12-04T05:00:26.695Z,11.18
2022-12-04T05:01:15.011Z,11.32
2022-12-04T05:01:56.919Z,10.43
2022-12-04T05:02:38.808Z,10.93
2022-12-04T05:03:20.569Z,10.23
2022-12-04T05:04:04.911Z,11.82
2022-12-04T05:04:46.584Z,11.00
2022-12-04T05:05:28.206Z,10.63
2022-12-04T05:06:10.070Z,9.95
2022-12-04T05:06:51.739Z,10.45
2022-12-04T05:07:33.616Z,10.75
2022-12-04T05:08:15.398Z,9.90
2022-12-04T05:08:57.151Z,9.85
2022-12-04T05:09:41.384Z,10.57
2022-12-04T05:10:23.547Z,11.55
2022-12-04T05:11:06.006Z,9.85
2022-12-04T05:11:47.602Z,9.98
2022-12-04T05:12:29.275Z,11.02
2022-12-04T05:13:14.181Z,10.10
2022-12-04T05:13:55.786Z,9.93
2022-12-04T05:14:37.423Z,10.35
2022-12-04T05:15:19.084Z,10.68
2022-12-04T05:16:03.795Z,9.82
2022-12-04T05:16:45.773Z,10.48
2022-12-04T05:17:27.445Z,10.88
2022-12-04T05:18:09.961Z,10.25
2022-12-04T05:19:10.395Z,10.68
2022-12-04T05:19:55.689Z,11.38
2022-12-04T05:20:40.595Z,10.52
2022-12-04T05:21:22.232Z,10.45
2022-12-04T05:22:03.911Z,10.23
2022-12-04T05:22:45.560Z,10.38
2022-12-04T05:23:27.240Z,10.75
2022-12-04T05:24:09.737Z,10.18
2022-12-04T05:24:51.525Z,10.10
2022-12-04T05:25:33.433Z,9.48
2022-12-04T05:26:15.059Z,9.82
2022-12-04T05:26:56.700Z,9.43
2022-12-04T05:27:38.552Z,10.45
2022-12-04T05:28:20.246Z,9.70
2022-12-04T05:29:01.899Z,9.95
2022-12-04T05:29:43.508Z,10.07
2022-12-04T05:30:25.179Z,9.73
2022-12-04T05:31:06.828Z,10.60
2022-12-04T05:31:48.527Z,10.32
2022-12-04T05:32:30.597Z,10.00
2022-12-04T05:33:12.344Z,9.65
2022-12-04T05:33:54.010Z,9.82
2022-12-04T05:34:35.876Z,9.52
2022-12-04T05:35:17.592Z,9.82
2022-12-04T05:36:05.223Z,11.52
2022-12-04T05:36:46.886Z,9.85
2022-12-04T05:37:28.672Z,9.70
2022-12-04T05:38:10.380Z,10.20
2022-12-04T05:38:52.072Z,10.02
2022-12-04T05:39:34.416Z,10.25
2022-12-04T05:40:16.342Z,10.23
2022-12-04T05:40:59.566Z,10.10
2022-12-04T05:41:41.201Z,9.75
2022-12-04T05:42:22.856Z,9.95
2022-12-04T05:43:04.518Z,9.23
2022-12-04T05:43:46.196Z,9.60
2022-12-04T05:44:27.905Z,9.15
2022-12-04T05:45:10.148Z,9.20
2022-12-04T05:45:51.995Z,9.68
2022-12-04T05:46:33.740Z,9.35
2022-12-04T05:47:16.745Z,9.75
2022-12-04T05:47:58.382Z,9.57
2022-12-04T05:48:40.078Z,9.10
2022-12-04T05:49:21.791Z,9.40
2022-12-04T05:50:03.733Z,9.88
2022-12-04T05:50:45.465Z,10.07
2022-12-04T05:51:27.225Z,10.05
2022-12-04T05:52:10.548Z,9.77
2022-12-04T05:52:52.263Z,10.43
2022-12-04T05:53:33.977Z,9.77
2022-12-04T05:54:15.658Z,10.15
2022-12-04T05:54:57.394Z,10.02
2022-12-04T05:55:39.078Z,9.93
2022-12-04T05:56:20.785Z,9.57
2022-12-04T05:57:02.601Z,9.38
2022-12-04T05:57:44.249Z,9.77
2022-12-04T05:58:26.335Z,9.60
2022-12-04T05:59:08.033Z,9.73
2022-12-04T05:59:50.921Z,10.80
2022-12-04T06:00:32.693Z,10.80
2022-12-04T06:01:20.074Z,10.15
2022-12-04T06:02:01.817Z,9.35
2022-12-04T06:02:43.579Z,9.88
2022-12-04T06:03:25.336Z,10.50
2022-12-04T06:04:07.563Z,10.93
2022-12-04T06:04:49.303Z,11.10
2022-12-04T06:05:32.582Z,10.18
2022-12-04T06:06:22.130Z,9.93
2022-12-04T06:07:04.375Z,9.70
2022-12-04T06:07:46.272Z,9.63
2022-12-04T06:08:27.965Z,10.13
2022-12-04T06:09:09.736Z,9.88
2022-12-04T06:09:51.480Z,9.32
2022-12-04T06:10:33.101Z,9.75
2022-12-04T06:11:17.795Z,10.13
2022-12-04T06:11:59.614Z,9.50
2022-12-04T06:12:41.259Z,8.88
2022-12-04T06:13:23.007Z,9.57
2022-12-04T06:14:07.083Z,10.32
2022-12-04T06:14:48.805Z,9.02
2022-12-04T06:15:30.476Z,9.95
2022-12-04T06:16:17.960Z,10.00
2022-12-04T06:16:59.621Z,9.20
2022-12-04T06:17:41.261Z,9.27
2022-12-04T06:18:22.853Z,10.05
2022-12-04T06:19:10.140Z,9.40
2022-12-04T06:19:53.627Z,9.25
2022-12-04T06:20:35.579Z,10.25
2022-12-04T06:21:18.546Z,9.73
2022-12-04T06:22:00.209Z,10.13
2022-12-04T06:22:41.907Z,9.93
2022-12-04T06:23:23.956Z,10.50
2022-12-04T06:24:06.741Z,10.27
2022-12-04T06:24:48.699Z,10.88
2022-12-04T06:25:30.447Z,9.60
2022-12-04T06:26:12.888Z,9.70
2022-12-04T06:28:00.695Z,9.07
2022-12-04T06:28:42.508Z,8.93
2022-12-04T06:29:24.112Z,8.55
2022-12-04T06:30:06.316Z,10.43
2022-12-04T06:30:48.008Z,9.65
2022-12-04T06:31:30.495Z,9.60
2022-12-04T06:32:16.347Z,8.95
2022-12-04T06:33:01.307Z,9.48
2022-12-04T06:33:43.238Z,8.88
2022-12-04T06:34:24.950Z,9.10
2022-12-04T06:35:07.051Z,9.63
2022-12-04T06:35:58.052Z,9.40
2022-12-04T06:36:39.867Z,9.95
2022-12-04T06:37:24.135Z,9.63
2022-12-04T06:38:06.397Z,10.30
2022-12-04T06:38:49.086Z,9.57
2022-12-04T06:39:30.784Z,9.43
2022-12-04T06:40:12.714Z,9.65
2022-12-04T06:40:54.429Z,9.85
2022-12-04T06:41:36.126Z,9.33
2022-12-04T06:42:17.786Z,8.82
2022-12-04T06:42:59.483Z,9.98
2022-12-04T06:43:41.837Z,9.68
2022-12-04T06:44:23.535Z,9.02
2022-12-04T06:45:06.485Z,9.43
2022-12-04T06:45:48.487Z,9.75
2022-12-04T06:46:32.901Z,8.98
2022-12-04T06:47:14.605Z,9.05
2022-12-04T06:47:56.250Z,9.20
2022-12-04T06:48:38.650Z,9.23
2022-12-04T06:49:22.828Z,8.23
2022-12-04T06:50:05.111Z,9.23
2022-12-04T06:50:46.756Z,8.23
2022-12-04T06:51:34.219Z,8.68
2022-12-04T06:52:15.884Z,9.27
2022-12-04T06:52:57.550Z,9.13
2022-12-04T06:53:39.694Z,9.02
2022-12-04T06:57:07.078Z,9.10
2022-12-04T06:57:48.727Z,8.77
2022-12-04T06:58:30.749Z,8.55
2022-12-04T06:59:12.450Z,9.85
2022-12-04T06:59:54.463Z,8.27
2022-12-04T07:00:36.440Z,8.65
2022-12-04T07:01:20.563Z,8.90
2022-12-04T07:02:02.292Z,9.30
2022-12-04T07:02:44.037Z,8.90
2022-12-04T07:03:26.837Z,8.73
2022-12-04T07:04:08.778Z,8.77
2022-12-04T07:04:55.391Z,8.80
2022-12-04T07:05:37.063Z,9.25
2022-12-04T07:06:27.689Z,9.20
2022-12-04T07:07:09.992Z,9.35
2022-12-04T07:07:51.741Z,8.52
2022-12-04T07:08:33.405Z,8.00
2022-12-04T07:09:17.420Z,9.45
2022-12-04T07:09:59.181Z,8.00
2022-12-04T07:10:41.352Z,9.07
2022-12-04T07:11:23.523Z,8.60
2022-12-04T07:12:05.743Z,9.23
2022-12-04T07:12:47.496Z,8.63
2022-12-04T07:13:29.260Z,9.10
2022-12-04T07:14:12.094Z,9.15
2022-12-04T07:14:53.702Z,10.85
2022-12-04T07:15:37.266Z,10.82
2022-12-04T07:16:21.586Z,10.82
2022-12-04T07:17:03.502Z,10.43
2022-12-04T07:17:45.313Z,10.38
2022-12-04T07:18:28.010Z,9.13
2022-12-04T07:19:11.766Z,9.27
2022-12-04T07:19:53.836Z,8.60
2022-12-04T07:20:40.540Z,11.00
2022-12-04T07:21:24.946Z,9.07
2022-12-04T07:22:08.769Z,9.10
2022-12-04T07:22:50.518Z,8.27
2022-12-04T07:23:32.223Z,8.63
2022-12-04T07:24:17.107Z,9.18
2022-12-04T07:24:58.788Z,8.48
2022-12-04T07:25:40.700Z,8.88
2022-12-04T07:26:23.347Z,8.50
2022-12-04T07:27:05.062Z,9.52
2022-12-04T07:27:46.840Z,11.00
2022-12-04T07:28:28.477Z,15.38
2022-12-04T07:29:10.712Z,13.75
2022-12-04T07:29:53.205Z,12.82
2022-12-04T07:30:38.098Z,11.60
2022-12-04T07:31:21.699Z,11.38
2022-12-04T07:32:03.787Z,11.20
2022-12-04T07:32:45.516Z,10.68
2022-12-04T07:33:27.234Z,10.32
2022-12-04T07:34:08.920Z,10.60
2022-12-04T07:34:51.090Z,11.02
2022-12-04T07:35:33.312Z,10.13
2022-12-04T07:36:19.290Z,13.07
2022-12-04T07:37:00.892Z,10.82
2022-12-04T07:37:42.577Z,10.30
2022-12-04T07:38:25.218Z,11.15
2022-12-04T07:39:06.943Z,9.70
2022-12-04T07:39:52.067Z,10.02
2022-12-04T07:40:33.745Z,9.57
2022-12-04T07:41:16.037Z,10.85
2022-12-04T07:41:57.663Z,9.98
2022-12-04T07:42:39.327Z,10.23
2022-12-04T07:43:20.997Z,9.43
2022-12-04T07:44:02.804Z,9.60
2022-12-04T07:44:44.655Z,9.10
2022-12-04T07:45:26.347Z,9.13
2022-12-04T07:46:14.392Z,8.40
2022-12-04T07:46:56.074Z,8.75
2022-12-04T07:47:37.836Z,8.77
2022-12-04T07:48:19.577Z,8.68
2022-12-04T07:49:01.333Z,9.50
2022-12-04T07:49:43.068Z,9.48
2022-12-04T07:50:24.897Z,8.57
2022-12-04T07:51:14.927Z,8.57
2022-12-04T07:51:56.579Z,8.80
2022-12-04T07:52:39.744Z,8.27
2022-12-04T07:53:21.444Z,8.90
2022-12-04T07:54:04.449Z,9.23
2022-12-04T07:54:46.646Z,8.07
2022-12-04T07:55:28.328Z,8.27
2022-12-04T07:56:11.285Z,8.98
2022-12-04T07:56:52.933Z,11.00
2022-12-04T07:57:34.696Z,11.55
2022-12-04T07:58:16.345Z,9.57
2022-12-04T07:58:59.405Z,8.95
2022-12-04T07:59:41.159Z,8.30
2022-12-04T08:00:22.936Z,8.27
2022-12-04T08:01:13.408Z,9.13
2022-12-04T08:01:55.246Z,9.07
2022-12-04T08:02:37.097Z,9.75
2022-12-04T08:03:18.768Z,9.18
2022-12-04T08:04:01.380Z,8.38
2022-12-04T08:04:43.151Z,9.20
2022-12-04T08:05:24.962Z,9.55
2022-12-04T08:06:07.311Z,8.75
2022-12-04T08:06:49.027Z,8.60
2022-12-04T08:07:31.688Z,8.50
2022-12-04T08:08:13.471Z,8.45
2022-12-04T08:08:55.239Z,8.57
2022-12-04T08:09:36.910Z,8.57
2022-12-04T08:10:18.749Z,9.60
2022-12-04T08:11:00.835Z,9.52
2022-12-04T08:11:42.675Z,9.52
2022-12-04T08:12:24.715Z,9.23
2022-12-04T08:13:07.255Z,9.40
2022-12-04T08:13:54.556Z,10.07
2022-12-04T08:14:36.316Z,9.65
2022-12-04T08:15:18.179Z,9.27
2022-12-04T08:16:04.303Z,9.57
2022-12-04T08:16:52.704Z,9.10
2022-12-04T08:17:34.822Z,9.02
2022-12-04T08:18:16.957Z,9.48
2022-12-04T08:19:00.043Z,8.82
2022-12-04T08:19:41.849Z,9.50
2022-12-04T08:20:23.508Z,9.23
2022-12-04T08:21:05.210Z,8.05
2022-12-04T08:21:46.971Z,8.02
2022-12-04T08:22:28.633Z,8.70
2022-12-04T08:23:10.360Z,8.43
2022-12-04T08:23:54.351Z,9.40
2022-12-04T08:24:36.126Z,8.82
2022-12-04T08:25:18.207Z,9.32
2022-12-04T08:26:00.992Z,8.88
2022-12-04T08:26:42.703Z,9.35
2022-12-04T08:27:24.456Z,9.10
2022-12-04T08:28:06.245Z,8.93
2022-12-04T08:28:48.539Z,9.27
2022-12-04T08:29:35.338Z,9.75
2022-12-04T08:30:17.317Z,10.15
2022-12-04T08:31:07.339Z,8.48
2022-12-04T08:31:49.089Z,8.73
2022-12-04T08:32:30.769Z,8.70
2022-12-04T08:33:12.465Z,8.48
2022-12-04T08:33:56.915Z,9.43
2022-12-04T08:34:38.619Z,8.95
2022-12-04T08:35:20.370Z,10.48
2022-12-04T08:36:05.485Z,11.20
2022-12-04T08:36:47.191Z,13.05
2022-12-04T08:37:28.944Z,11.80
2022-12-04T08:38:10.655Z,12.00
2022-12-04T08:38:52.476Z,11.15
2022-12-04T08:39:34.263Z,11.65
2022-12-04T08:40:16.132Z,11.13
2022-12-04T08:41:01.948Z,10.55
2022-12-04T08:41:43.639Z,10.60
2022-12-04T08:42:25.418Z,10.77
2022-12-04T08:43:07.191Z,10.68
2022-12-04T08:43:50.129Z,12.15
2022-12-04T08:44:31.895Z,15.73
2022-12-04T08:45:13.578Z,13.55
2022-12-04T08:45:59.676Z,11.15
2022-12-04T08:46:41.594Z,14.68
2022-12-04T08:47:23.609Z,13.05
2022-12-04T08:48:05.683Z,12.27
2022-12-04T08:48:47.483Z,11.65
2022-12-04T08:49:29.293Z,10.68
2022-12-04T08:50:11.161Z,9.85
2022-12-04T08:50:53.337Z,9.05
2022-12-04T08:51:35.876Z,8.88
2022-12-04T08:52:17.613Z,8.45
2022-12-04T08:52:59.378Z,8.85
2022-12-04T08:53:41.971Z,7.85
2022-12-04T08:54:23.742Z,8.00
2022-12-04T08:55:05.966Z,8.30
2022-12-04T08:55:48.244Z,8.32
2022-12-04T08:56:31.261Z,8.38
2022-12-04T08:57:12.954Z,10.02
2022-12-04T08:57:54.981Z,9.00
2022-12-04T08:58:36.922Z,9.32
2022-12-04T08:59:18.994Z,8.93
2022-12-04T09:00:00.727Z,8.57
2022-12-04T09:00:43.121Z,8.55
2022-12-04T09:01:26.218Z,8.80
2022-12-04T09:02:10.983Z,8.88
2022-12-04T09:02:52.788Z,9.13
2022-12-04T09:03:35.143Z,8.63
2022-12-04T09:04:16.953Z,8.95
2022-12-04T09:04:58.865Z,9.68
2022-12-04T09:05:41.539Z,11.45
2022-12-04T09:06:24.238Z,10.82
2022-12-04T09:07:06.058Z,9.63
2022-12-04T09:07:47.737Z,9.70
2022-12-04T09:08:29.488Z,9.82
2022-12-04T09:09:12.371Z,9.57
2022-12-04T09:09:54.013Z,9.23
2022-12-04T09:10:36.584Z,9.75
2022-12-04T09:11:20.463Z,7.63
2022-12-04T09:12:02.189Z,10.20
2022-12-04T09:12:43.992Z,8.93
2022-12-04T09:13:25.700Z,9.80
2022-12-04T09:14:07.607Z,10.15
2022-12-04T09:14:49.517Z,10.00
2022-12-04T09:15:32.110Z,10.68
2022-12-04T09:16:20.872Z,10.20
2022-12-04T09:17:02.707Z,9.27
2022-12-04T09:17:44.598Z,8.57
2022-12-04T09:18:26.404Z,9.27
2022-12-04T09:19:08.214Z,9.13
2022-12-04T09:19:50.177Z,8.93
2022-12-04T09:20:32.072Z,9.65
2022-12-04T09:21:15.966Z,9.00
2022-12-04T09:21:57.777Z,8.10
2022-12-04T09:23:02.066Z,8.70
2022-12-04T09:23:41.992Z,8.27
2022-12-04T09:24:23.786Z,9.50
2022-12-04T09:25:06.359Z,9.30
2022-12-04T09:25:48.265Z,9.23
2022-12-04T09:26:32.891Z,9.30
2022-12-04T09:27:15.181Z,8.98
2022-12-04T09:27:57.007Z,10.13
2022-12-04T09:28:38.700Z,9.20
2022-12-04T09:29:20.395Z,10.23
2022-12-04T09:30:02.209Z,11.68
2022-12-04T09:30:43.971Z,10.40
2022-12-04T09:31:26.493Z,10.50
2022-12-04T09:32:08.578Z,9.68
2022-12-04T09:32:50.398Z,9.45
2022-12-04T09:33:33.348Z,10.73
2022-12-04T09:34:15.089Z,11.60
2022-12-04T09:34:56.773Z,10.65
2022-12-04T09:35:39.207Z,9.82
2022-12-04T09:36:21.729Z,9.52
2022-12-04T09:37:03.466Z,9.27
2022-12-04T09:37:45.196Z,9.95
2022-12-04T09:38:27.843Z,9.68
2022-12-04T09:39:10.287Z,10.52
2022-12-04T09:39:52.205Z,9.68
2022-12-04T09:40:45.064Z,8.60
2022-12-04T09:41:51.476Z,10.50
2022-12-04T09:42:45.880Z,10.68
2022-12-04T09:43:33.344Z,10.23
2022-12-04T09:44:27.979Z,10.07
2022-12-04T09:45:20.814Z,9.95
2022-12-04T09:46:12.189Z,10.32
2022-12-04T09:47:21.260Z,10.98
2022-12-04T09:48:03.231Z,9.38
2022-12-04T09:48:48.604Z,9.48
2022-12-04T09:49:43.217Z,9.23
2022-12-04T09:50:43.617Z,10.00
2022-12-04T09:51:26.377Z,9.40
2022-12-04T09:52:24.088Z,9.30
2022-12-04T09:53:14.259Z,11.77
2022-12-04T09:54:14.342Z,11.68
2022-12-04T09:54:58.525Z,10.75
2022-12-04T09:55:47.687Z,8.63
2022-12-04T09:56:32.097Z,9.73